createdAt,value
2018-11-22T00:00:18.776Z,7.05
2018-11-22T00:00:59.127Z,7.04
2018-11-22T00:01:39.567Z,7.09
2018-11-22T00:02:19.932Z,7.08
2018-11-22T00:03:00.311Z,7.04
2018-11-22T00:03:40.675Z,7.11
2018-11-22T00:04:21.067Z,7.11
2018-11-22T00:05:01.499Z,7.14
2018-11-22T00:05:41.852Z,7.15
2018-11-22T00:06:22.224Z,7.12
2018-11-22T00:07:02.618Z,7.09
2018-11-22T00:07:43.010Z,7.04
2018-11-22T00:08:23.399Z,7.01
2018-11-22T00:09:03.769Z,7.01
2018-11-22T00:09:44.167Z,6.97
2018-11-22T00:10:24.554Z,6.9
2018-11-22T00:12:02.277Z,6.93
2018-11-22T00:12:42.330Z,6.93
2018-11-22T00:13:22.754Z,6.96
2018-11-22T00:14:03.118Z,6.89
2018-11-22T00:14:43.557Z,6.93
2018-11-22T00:15:23.922Z,6.83
2018-11-22T00:16:04.346Z,6.93
2018-11-22T00:16:44.682Z,6.91
2018-11-22T00:17:25.135Z,6.91
2018-11-22T00:18:05.476Z,6.93
2018-11-22T00:18:45.866Z,6.93
2018-11-22T00:19:26.300Z,6.93
2018-11-22T00:20:06.644Z,6.91
2018-11-22T00:20:47.043Z,6.97
2018-11-22T00:21:27.444Z,7.05
2018-11-22T00:22:07.815Z,6.99
2018-11-22T00:22:48.210Z,7.09
2018-11-22T00:23:28.603Z,7.14
2018-11-22T00:24:09.031Z,7.15
2018-11-22T00:24:49.466Z,7.09
2018-11-22T00:25:29.815Z,7.15
2018-11-22T00:26:10.170Z,7.07
2018-11-22T00:26:50.562Z,7.19
2018-11-22T00:27:30.963Z,7.11
2018-11-22T00:28:11.342Z,7.08
2018-11-22T00:28:51.729Z,7.04
2018-11-22T00:29:32.129Z,7.01
2018-11-22T00:30:12.530Z,7.04
2018-11-22T00:30:52.949Z,7.08
2018-11-22T00:31:33.362Z,7.08
2018-11-22T00:32:13.736Z,7.15
2018-11-22T00:32:54.157Z,7.14
2018-11-22T00:33:34.558Z,7.15
2018-11-22T00:34:14.917Z,7.12
2018-11-22T00:34:55.305Z,7.14
2018-11-22T00:35:35.735Z,7.18
2018-11-22T00:36:16.101Z,7.18
2018-11-22T00:36:56.477Z,7.16
2018-11-22T00:37:36.892Z,7.15
2018-11-22T00:38:17.249Z,7.16
2018-11-22T00:38:57.677Z,7.21
2018-11-22T00:39:38.045Z,7.21
2018-11-22T00:40:18.471Z,7.16
2018-11-22T00:40:58.904Z,7.14
2018-11-22T00:41:39.222Z,7.16
2018-11-22T00:42:19.612Z,7.11
2018-11-22T00:42:59.981Z,7.15
2018-11-22T00:43:40.409Z,7.16
2018-11-22T00:44:20.804Z,7.12
2018-11-22T00:45:01.177Z,7.15
2018-11-22T00:45:41.567Z,7.14
2018-11-22T00:46:21.957Z,7.23
2018-11-22T00:47:02.353Z,7.16
2018-11-22T00:47:42.743Z,7.21
2018-11-22T00:48:23.138Z,7.18
2018-11-22T00:49:03.537Z,7.21
2018-11-22T00:49:43.928Z,7.21
2018-11-22T00:50:24.311Z,7.14
2018-11-22T00:51:04.715Z,7.15
2018-11-22T00:51:45.143Z,7.12
2018-11-22T00:52:25.498Z,7.12
2018-11-22T00:53:05.876Z,7.11
2018-11-22T00:53:46.284Z,7.18
2018-11-22T00:54:26.664Z,7.14
2018-11-22T00:55:07.061Z,7.11
2018-11-22T00:55:47.475Z,7.21
2018-11-22T00:56:27.882Z,7.47
2018-11-22T00:57:08.261Z,7.58
2018-11-22T00:57:48.681Z,7.69
2018-11-22T00:58:29.056Z,7.84
2018-11-22T00:59:09.437Z,7.86
2018-11-22T00:59:49.872Z,7.86
2018-11-22T01:01:39.304Z,7.77
2018-11-22T01:02:19.434Z,7.66
2018-11-22T01:02:59.833Z,7.71
2018-11-22T01:03:40.254Z,7.69
2018-11-22T01:04:20.621Z,7.84
2018-11-22T01:05:01.037Z,7.79
2018-11-22T01:05:41.403Z,7.94
2018-11-22T01:06:21.818Z,7.92
2018-11-22T01:07:02.182Z,7.95
2018-11-22T01:08:39.557Z,7.91
2018-11-22T01:09:19.905Z,7.86
2018-11-22T01:10:00.239Z,7.92
2018-11-22T01:10:40.632Z,8.03
2018-11-22T01:11:21.022Z,8.07
2018-11-22T01:12:01.400Z,8.13
2018-11-22T01:12:41.793Z,8.17
2018-11-22T01:13:22.173Z,8.14
2018-11-22T01:14:59.410Z,8.22
2018-11-22T01:15:39.827Z,8.24
2018-11-22T01:16:20.205Z,8.29
2018-11-22T01:17:00.622Z,8.17
2018-11-22T01:17:41.006Z,8.32
2018-11-22T01:18:21.408Z,8.31
2018-11-22T01:19:01.795Z,8.17
2018-11-22T01:19:42.193Z,8.17
2018-11-22T01:20:22.563Z,8.17
2018-11-22T01:21:02.991Z,8.18
2018-11-22T01:21:43.386Z,8.12
2018-11-22T01:22:23.832Z,8.2
2018-11-22T01:23:04.172Z,8.18
2018-11-22T01:23:44.595Z,8.36
2018-11-22T01:24:24.978Z,8.37
2018-11-22T01:25:05.368Z,8.42
2018-11-22T01:26:42.535Z,8.5
2018-11-22T01:27:22.942Z,8.39
2018-11-22T01:28:03.435Z,8.49
2018-11-22T01:28:43.768Z,8.58
2018-11-22T01:29:24.165Z,8.55
2018-11-22T01:30:04.556Z,8.6
2018-11-22T01:30:44.962Z,8.6
2018-11-22T01:31:25.330Z,8.52
2018-11-22T01:32:05.733Z,8.52
2018-11-22T01:32:46.172Z,8.5
2018-11-22T01:33:26.519Z,8.5
2018-11-22T01:34:06.905Z,8.54
2018-11-22T01:34:47.293Z,8.64
2018-11-22T01:35:27.721Z,8.57
2018-11-22T01:36:08.139Z,8.54
2018-11-22T01:36:48.564Z,8.47
2018-11-22T01:37:28.920Z,8.31
2018-11-22T01:38:09.317Z,8.42
2018-11-22T01:38:49.703Z,8.28
2018-11-22T01:39:30.104Z,8.17
2018-11-22T01:40:10.486Z,8.22
2018-11-22T01:40:50.851Z,8.25
2018-11-22T01:41:31.264Z,8.31
2018-11-22T01:42:11.673Z,8.24
2018-11-22T01:42:52.065Z,8.36
2018-11-22T01:43:32.466Z,8.4
2018-11-22T01:44:12.873Z,8.27
2018-11-22T01:44:53.291Z,8.29
2018-11-22T01:45:33.708Z,8.27
2018-11-22T01:46:14.050Z,8.14
2018-11-22T01:46:54.450Z,8.24
2018-11-22T01:47:34.856Z,8.34
2018-11-22T01:48:15.270Z,8.24
2018-11-22T01:48:55.626Z,8.2
2018-11-22T01:49:36.010Z,8.09
2018-11-22T01:50:16.434Z,8.03
2018-11-22T01:50:56.822Z,7.91
2018-11-22T01:51:37.223Z,7.92
2018-11-22T01:52:17.588Z,7.89
2018-11-22T01:52:57.993Z,7.84
2018-11-22T01:53:38.375Z,7.81
2018-11-22T01:54:18.792Z,7.74
2018-11-22T01:54:59.141Z,7.74
2018-11-22T01:55:39.523Z,7.62
2018-11-22T01:56:19.935Z,7.62
2018-11-22T01:57:00.341Z,7.7
2018-11-22T01:58:53.158Z,7.5
2018-11-22T01:59:36.015Z,7.37
2018-11-22T02:00:14.767Z,7.34
2018-11-22T02:00:55.123Z,7.42
2018-11-22T02:01:35.513Z,7.23
2018-11-22T02:02:15.928Z,7.3
2018-11-22T02:02:56.356Z,7.41
2018-11-22T02:03:36.727Z,7.33
2018-11-22T02:04:17.145Z,7.37
2018-11-22T02:04:57.533Z,7.51
2018-11-22T02:05:37.892Z,7.45
2018-11-22T02:06:18.312Z,7.51
2018-11-22T02:06:58.754Z,7.54
2018-11-22T02:07:39.146Z,7.52
2018-11-22T02:08:19.541Z,7.48
2018-11-22T02:08:59.916Z,7.34
2018-11-22T02:09:40.304Z,7.34
2018-11-22T02:10:20.695Z,7.36
2018-11-22T02:11:01.100Z,7.36
2018-11-22T02:11:41.469Z,7.33
2018-11-22T02:12:21.855Z,7.3
2018-11-22T02:13:02.253Z,7.29
2018-11-22T02:13:42.640Z,7.19
2018-11-22T02:14:23.031Z,7.21
2018-11-22T02:15:03.416Z,7.29
2018-11-22T02:15:43.827Z,7.39
2018-11-22T02:16:24.216Z,7.34
2018-11-22T02:17:04.575Z,7.41
2018-11-22T02:17:45.015Z,7.32
2018-11-22T02:18:25.409Z,7.29
2018-11-22T02:19:05.805Z,7.32
2018-11-22T02:19:46.170Z,7.36
2018-11-22T02:20:26.585Z,7.3
2018-11-22T02:21:07.017Z,7.33
2018-11-22T02:21:47.440Z,7.32
2018-11-22T02:22:27.823Z,7.33
2018-11-22T02:23:08.196Z,7.34
2018-11-22T02:23:48.577Z,7.36
2018-11-22T02:24:28.970Z,7.5
2018-11-22T02:25:09.365Z,7.37
2018-11-22T02:25:49.802Z,7.52
2018-11-22T02:26:30.143Z,7.47
2018-11-22T02:27:10.528Z,7.58
2018-11-22T02:27:50.898Z,7.55
2018-11-22T02:28:31.312Z,7.51
2018-11-22T02:29:11.669Z,7.32
2018-11-22T02:29:52.052Z,7.29
2018-11-22T02:30:32.427Z,7.27
2018-11-22T02:31:12.828Z,7.19
2018-11-22T02:31:53.205Z,7.23
2018-11-22T02:32:33.647Z,7.23
2018-11-22T02:33:13.998Z,7.3
2018-11-22T02:33:54.417Z,7.26
2018-11-22T02:34:34.799Z,7.27
2018-11-22T02:35:15.248Z,7.18
2018-11-22T02:35:55.628Z,7.21
2018-11-22T02:36:35.969Z,7.16
2018-11-22T02:37:16.372Z,7.19
2018-11-22T02:37:56.758Z,7.19
2018-11-22T02:38:37.143Z,7.18
2018-11-22T02:39:17.565Z,7.15
2018-11-22T02:39:57.928Z,7.12
2018-11-22T02:40:38.335Z,7.15
2018-11-22T02:41:18.664Z,7.08
2018-11-22T02:41:59.052Z,7.09
2018-11-22T02:42:39.454Z,7.11
2018-11-22T02:43:19.840Z,7.11
2018-11-22T02:44:00.238Z,7.08
2018-11-22T02:44:40.623Z,7.08
2018-11-22T02:45:20.993Z,7
2018-11-22T02:46:01.379Z,6.97
2018-11-22T02:46:41.808Z,6.9
2018-11-22T02:47:22.169Z,6.94
2018-11-22T02:48:02.555Z,6.97
2018-11-22T02:48:42.956Z,6.93
2018-11-22T02:49:23.360Z,6.86
2018-11-22T02:50:03.741Z,6.9
2018-11-22T02:50:44.122Z,6.89
2018-11-22T02:51:24.501Z,6.97
2018-11-22T02:52:04.850Z,7.08
2018-11-22T02:52:45.241Z,7.09
2018-11-22T02:53:25.645Z,7.09
2018-11-22T02:54:06.072Z,7.08
2018-11-22T02:54:46.467Z,7.15
2018-11-22T02:55:26.858Z,7.19
2018-11-22T02:56:07.273Z,7.21
2018-11-22T02:56:47.687Z,7.18
2018-11-22T02:57:28.085Z,7.19
2018-11-22T02:58:08.434Z,7.18
2018-11-22T02:58:48.844Z,7.16
2018-11-22T02:59:29.246Z,7.16
2018-11-22T03:00:09.701Z,7.15
2018-11-22T03:00:50.038Z,7.09
2018-11-22T03:01:30.464Z,7.05
2018-11-22T03:02:10.826Z,7.07
2018-11-22T03:02:51.220Z,7
2018-11-22T03:03:31.585Z,7.01
2018-11-22T03:04:11.995Z,6.93
2018-11-22T03:04:52.343Z,7.04
2018-11-22T03:05:32.718Z,7.05
2018-11-22T03:06:13.101Z,6.93
2018-11-22T03:06:53.506Z,7.05
2018-11-22T03:07:33.906Z,7.01
2018-11-22T03:08:14.304Z,7.07
2018-11-22T03:08:54.660Z,7.07
2018-11-22T03:09:35.100Z,6.89
2018-11-22T03:10:15.491Z,6.9
2018-11-22T03:10:55.871Z,6.93
2018-11-22T03:11:36.259Z,6.87
2018-11-22T03:12:16.624Z,6.87
2018-11-22T03:12:57.013Z,6.94
2018-11-22T03:13:37.408Z,6.91
2018-11-22T03:14:17.798Z,7.04
2018-11-22T03:14:58.215Z,7.04
2018-11-22T03:15:38.611Z,6.94
2018-11-22T03:16:18.986Z,6.91
2018-11-22T03:16:59.391Z,6.93
2018-11-22T03:17:39.781Z,6.96
2018-11-22T03:19:36.328Z,7.09
2018-11-22T03:20:28.890Z,7.05
2018-11-22T03:21:21.577Z,7.05
2018-11-22T03:22:14.049Z,7.11
2018-11-22T03:23:06.603Z,7.12
2018-11-22T03:23:59.509Z,7.18
2018-11-22T03:24:51.765Z,7.14
2018-11-22T03:25:43.990Z,7.16
2018-11-22T03:26:36.459Z,7.18
2018-11-22T03:27:28.718Z,7.14
2018-11-22T03:28:21.097Z,7.19
2018-11-22T03:29:13.384Z,7.19
2018-11-22T03:30:07.174Z,7.16
2018-11-22T03:31:00.067Z,7.15
2018-11-22T03:31:52.347Z,7.19
2018-11-22T03:32:44.598Z,7.24
2018-11-22T03:33:37.170Z,7.23
2018-11-22T03:34:29.554Z,7.21
2018-11-22T03:35:22.080Z,7.15
2018-11-22T03:36:14.484Z,7.14
2018-11-22T03:37:07.019Z,7.15
2018-11-22T03:37:59.035Z,7.18
2018-11-22T03:38:51.605Z,7.41
2018-11-22T03:39:43.624Z,7.54
2018-11-22T03:40:35.645Z,7.58
2018-11-22T03:41:28.004Z,7.76
2018-11-22T03:42:20.599Z,7.74
2018-11-22T03:43:12.967Z,7.74
2018-11-22T03:44:05.095Z,7.85
2018-11-22T03:44:57.017Z,7.85
2018-11-22T03:45:49.301Z,7.95
2018-11-22T03:46:41.484Z,8.07
2018-11-22T03:47:33.618Z,8.21
2018-11-22T03:48:25.467Z,8.32
2018-11-22T03:49:18.540Z,8.14
2018-11-22T03:50:11.015Z,8.18
2018-11-22T03:52:08.509Z,8.17
2018-11-22T03:52:48.801Z,8.1
2018-11-22T03:53:29.165Z,8.03
2018-11-22T03:54:09.539Z,7.88
2018-11-22T03:54:49.911Z,8
2018-11-22T03:55:30.348Z,7.99
2018-11-22T03:56:10.681Z,7.92
2018-11-22T03:56:51.079Z,7.84
2018-11-22T03:57:31.434Z,7.91
2018-11-22T03:58:11.818Z,8
2018-11-22T03:58:52.236Z,7.89
2018-11-22T03:59:32.620Z,8.04
2018-11-22T04:00:13.024Z,8.09
2018-11-22T04:00:53.402Z,8.18
2018-11-22T04:01:33.782Z,8.18
2018-11-22T04:02:14.163Z,8.22
2018-11-22T04:02:54.596Z,8.18
2018-11-22T04:03:34.974Z,8.17
2018-11-22T04:04:15.366Z,8.31
2018-11-22T04:04:55.732Z,8.29
2018-11-22T04:05:36.137Z,8.36
2018-11-22T04:06:16.506Z,8.39
2018-11-22T04:06:56.918Z,8.29
2018-11-22T04:07:37.368Z,8.37
2018-11-22T04:08:17.775Z,8.29
2018-11-22T04:08:58.148Z,8.31
2018-11-22T04:09:38.588Z,8.34
2018-11-22T04:10:18.933Z,8.27
2018-11-22T04:10:59.349Z,8.28
2018-11-22T04:11:39.752Z,8.37
2018-11-22T04:12:20.178Z,8.32
2018-11-22T04:13:00.540Z,8.27
2018-11-22T04:13:40.973Z,8.25
2018-11-22T04:14:21.329Z,8.21
2018-11-22T04:15:01.693Z,8.22
2018-11-22T04:15:42.075Z,8.36
2018-11-22T04:17:34.789Z,8.31
2018-11-22T04:18:27.336Z,8.2
2018-11-22T04:19:19.853Z,8.29
2018-11-22T04:20:13.110Z,8.28
2018-11-22T04:21:07.120Z,8.13
2018-11-22T04:21:59.482Z,8.21
2018-11-22T04:22:51.255Z,8.27
2018-11-22T04:23:43.857Z,8.14
2018-11-22T04:24:37.295Z,8.14
2018-11-22T04:25:29.806Z,8.09
2018-11-22T04:26:24.074Z,8.04
2018-11-22T04:27:14.286Z,8.04
2018-11-22T05:06:22.583Z,5.75
2018-11-22T05:07:02.818Z,5.66
2018-11-22T05:07:43.199Z,5.7
2018-11-22T05:08:23.570Z,5.75
2018-11-22T05:09:03.976Z,5.69
2018-11-22T05:09:44.393Z,5.67
2018-11-22T05:10:24.799Z,5.7
2018-11-22T05:11:05.166Z,5.7
2018-11-22T05:11:45.606Z,5.62
2018-11-22T05:12:25.972Z,5.7
2018-11-22T05:13:06.377Z,5.7
2018-11-22T05:13:46.735Z,5.67
2018-11-22T05:14:27.967Z,5.69
2018-11-22T05:15:08.364Z,5.6
2018-11-22T05:15:48.725Z,5.55
2018-11-22T05:16:29.113Z,5.58
2018-11-22T05:17:09.526Z,5.65
2018-11-22T05:17:49.960Z,5.62
2018-11-22T05:18:30.356Z,5.74
2018-11-22T05:19:10.853Z,5.7
2018-11-22T05:19:51.228Z,5.85
2018-11-22T05:20:31.650Z,5.85
2018-11-22T05:21:12.004Z,5.87
2018-11-22T05:21:52.472Z,6.02
2018-11-22T05:22:32.813Z,6.13
2018-11-22T05:23:13.388Z,6.11
2018-11-22T05:23:53.792Z,6.24
2018-11-22T05:24:34.274Z,6.19
2018-11-22T05:25:14.578Z,6.24
2018-11-22T05:25:54.973Z,6.27
2018-11-22T05:27:32.457Z,6.2
2018-11-22T05:28:14.407Z,6.24
2018-11-22T05:28:54.904Z,6.3
2018-11-22T05:29:35.212Z,6.38
2018-11-22T05:30:15.596Z,6.42
2018-11-22T05:30:56.025Z,6.42
2018-11-22T05:31:36.397Z,6.48
2018-11-22T05:32:16.776Z,6.45
2018-11-22T05:32:57.215Z,6.43
2018-11-22T05:33:37.549Z,6.42
2018-11-22T05:34:17.962Z,6.45
2018-11-22T05:34:58.435Z,6.48
2018-11-22T05:35:38.756Z,6.51
2018-11-22T05:36:19.140Z,6.55
2018-11-22T05:36:59.547Z,6.54
2018-11-22T05:37:39.903Z,6.55
2018-11-22T05:38:20.298Z,6.51
2018-11-22T05:39:00.700Z,6.54
2018-11-22T05:39:41.100Z,6.64
2018-11-22T05:40:21.547Z,6.69
2018-11-22T05:41:01.938Z,6.63
2018-11-22T05:41:43.878Z,6.9
2018-11-22T05:42:22.677Z,6.93
2018-11-22T05:43:03.088Z,6.93
2018-11-22T05:43:43.503Z,6.97
2018-11-22T05:44:23.872Z,6.87
2018-11-22T05:45:04.343Z,6.68
2018-11-22T05:45:44.674Z,6.71
2018-11-22T05:46:25.094Z,6.68
2018-11-22T05:47:05.477Z,6.53
2018-11-22T05:47:45.922Z,6.57
2018-11-22T05:48:26.290Z,6.6
2018-11-22T05:49:06.681Z,6.53
2018-11-22T05:49:47.127Z,6.57
2018-11-22T05:50:27.532Z,6.64
2018-11-22T05:51:07.865Z,6.65
2018-11-22T05:51:48.315Z,6.73
2018-11-22T05:52:28.674Z,6.71
2018-11-22T05:53:09.061Z,6.64
2018-11-22T05:53:49.459Z,6.9
2018-11-22T05:54:29.829Z,6.93
2018-11-22T05:55:10.249Z,6.87
2018-11-22T05:55:50.566Z,6.91
2018-11-22T05:56:30.947Z,6.89
2018-11-22T05:57:11.342Z,6.82
2018-11-22T05:57:51.720Z,6.64
2018-11-22T05:58:32.130Z,6.64
2018-11-22T05:59:12.515Z,6.64
2018-11-22T05:59:52.963Z,6.71
2018-11-22T06:00:33.362Z,6.68
2018-11-22T06:01:16.341Z,6.81
2018-11-22T06:01:54.129Z,6.76
2018-11-22T06:02:34.651Z,6.68
2018-11-22T06:03:15.124Z,6.71
2018-11-22T06:03:55.524Z,6.69
2018-11-22T06:04:35.938Z,6.65
2018-11-22T06:05:16.270Z,6.58
2018-11-22T06:05:56.668Z,6.65
2018-11-22T06:06:37.064Z,6.68
2018-11-22T06:07:17.479Z,6.63
2018-11-22T06:07:57.907Z,6.55
2018-11-22T06:08:38.345Z,6.5
2018-11-22T06:09:18.685Z,6.51
2018-11-22T06:09:59.087Z,6.43
2018-11-22T06:10:39.512Z,6.36
2018-11-22T06:11:19.863Z,6.28
2018-11-22T06:12:00.256Z,6.32
2018-11-22T06:12:40.646Z,6.19
2018-11-22T06:13:21.056Z,6.25
2018-11-22T06:14:01.438Z,6.17
2018-11-22T06:14:41.802Z,6.25
2018-11-22T06:15:22.222Z,6.28
2018-11-22T06:16:02.640Z,6.32
2018-11-22T06:16:43.072Z,6.36
2018-11-22T06:17:23.461Z,6.42
2018-11-22T06:18:03.887Z,6.46
2018-11-22T06:18:44.266Z,6.45
2018-11-22T06:19:24.649Z,6.48
2018-11-22T06:20:05.144Z,6.45
2018-11-22T06:20:45.511Z,6.48
2018-11-22T06:21:25.879Z,6.51
2018-11-22T06:22:06.297Z,6.42
2018-11-22T06:22:46.700Z,6.42
2018-11-22T06:23:27.136Z,6.35
2018-11-22T06:24:07.541Z,6.33
2018-11-22T06:24:48.004Z,6.33
2018-11-22T06:25:28.399Z,6.45
2018-11-22T06:26:08.760Z,6.54
2018-11-22T06:26:49.244Z,6.55
2018-11-22T06:27:29.586Z,6.69
2018-11-22T06:28:10.049Z,6.82
2018-11-22T06:28:50.411Z,6.81
2018-11-22T06:29:30.754Z,6.91
2018-11-22T06:30:11.163Z,6.93
2018-11-22T06:30:51.517Z,6.99
2018-11-22T06:32:28.704Z,7.01
2018-11-22T06:33:09.378Z,7.04
2018-11-22T06:33:49.786Z,6.97
2018-11-22T06:34:30.184Z,7.05
2018-11-22T06:35:10.720Z,7.12
2018-11-22T06:35:51.021Z,7.15
2018-11-22T06:36:31.413Z,7.18
2018-11-22T06:37:11.773Z,7.24
2018-11-22T06:37:52.180Z,7.19
2018-11-22T06:38:32.607Z,7.26
2018-11-22T06:39:13.017Z,7.36
2018-11-22T06:39:53.406Z,7.27
2018-11-22T06:40:33.884Z,7.19
2018-11-22T06:41:14.231Z,7.18
2018-11-22T06:41:54.608Z,7.16
2018-11-22T06:42:35.018Z,7.14
2018-11-22T06:43:15.445Z,7.19
2018-11-22T06:43:55.889Z,7.47
2018-11-22T06:44:36.249Z,7.34
2018-11-22T06:45:16.706Z,7.37
2018-11-22T06:45:57.378Z,7.36
2018-11-22T06:46:37.732Z,7.26
2018-11-22T06:47:18.333Z,7.27
2018-11-22T06:47:58.821Z,7.27
2018-11-22T06:48:39.261Z,7.24
2018-11-22T06:49:19.697Z,7.32
2018-11-22T06:50:00.092Z,7.3
2018-11-22T06:50:40.585Z,7.39
2018-11-22T06:51:23.932Z,7.34
2018-11-22T06:52:04.390Z,7.27
2018-11-22T06:52:44.850Z,7.21
2018-11-22T06:53:25.256Z,7.15
2018-11-22T06:54:05.692Z,7.16
2018-11-22T06:54:46.094Z,7.14
2018-11-22T06:55:26.795Z,7.16
2018-11-22T06:56:07.333Z,7.16
2018-11-22T06:56:47.713Z,7.19
2018-11-22T06:57:29.782Z,7.16
2018-11-22T06:58:10.255Z,7.21
2018-11-22T06:58:50.760Z,7.18
2018-11-22T06:59:31.209Z,7.08
2018-11-22T07:00:11.788Z,7.04
2018-11-22T07:00:52.232Z,7
2018-11-22T07:01:32.492Z,6.96
2018-11-22T07:02:12.967Z,6.9
2018-11-22T07:02:53.418Z,6.82
2018-11-22T07:03:33.781Z,6.82
2018-11-22T07:04:14.254Z,6.86
2018-11-22T07:04:54.632Z,6.94
2018-11-22T07:05:35.504Z,6.83
2018-11-22T07:06:15.968Z,6.79
2018-11-22T07:06:56.350Z,6.64
2018-11-22T07:07:36.734Z,6.64
2018-11-22T07:08:17.168Z,6.68
2018-11-22T07:08:57.584Z,6.87
2018-11-22T07:10:49.365Z,6.96
2018-11-22T07:12:59.695Z,6.96
2018-11-22T07:13:39.727Z,7
2018-11-22T07:14:20.098Z,7.01
2018-11-22T07:15:00.532Z,7.01
2018-11-22T07:15:40.980Z,7.04
2018-11-22T07:16:21.357Z,7.08
2018-11-22T07:17:01.875Z,7.05
2018-11-22T07:17:43.550Z,7.07
2018-11-22T07:18:25.041Z,7
2018-11-22T07:19:05.473Z,7
2018-11-22T07:19:45.878Z,6.97
2018-11-22T07:20:26.403Z,6.93
2018-11-22T07:21:06.821Z,6.93
2018-11-22T07:21:47.163Z,6.93
2018-11-22T07:22:27.569Z,6.94
2018-11-22T07:24:40.588Z,6.93
2018-11-22T07:25:21.396Z,6.9
2018-11-22T07:26:01.214Z,7.04
2018-11-22T07:26:41.948Z,7.14
2018-11-22T07:27:22.376Z,7.23
2018-11-22T07:28:02.857Z,7.27
2018-11-22T07:28:43.764Z,7.24
2018-11-22T07:29:24.339Z,7.37
2018-11-22T07:30:04.859Z,7.57
2018-11-22T07:30:45.282Z,7.47
2018-11-22T07:31:25.722Z,7.48
2018-11-22T07:32:06.091Z,7.42
2018-11-22T07:32:46.534Z,7.34
2018-11-22T07:33:27.007Z,7.42
2018-11-22T07:34:07.391Z,7.45
2018-11-22T07:34:47.867Z,7.57
2018-11-22T07:35:28.295Z,7.54
2018-11-22T07:36:08.719Z,7.6
2018-11-22T07:36:49.329Z,7.66
2018-11-22T07:37:29.724Z,7.58
2018-11-22T07:38:10.301Z,7.58
2018-11-22T07:38:50.741Z,7.55
2018-11-22T07:39:31.195Z,7.51
2018-11-22T07:40:11.563Z,7.48
2018-11-22T07:40:51.970Z,7.48
2018-11-22T07:41:32.410Z,7.55
2018-11-22T07:42:12.900Z,7.54
2018-11-22T07:42:53.267Z,7.45
2018-11-22T07:43:33.746Z,7.47
2018-11-22T07:44:14.124Z,7.48
2018-11-22T07:44:54.566Z,7.48
2018-11-22T07:45:34.948Z,7.45
2018-11-22T07:46:15.319Z,7.5
2018-11-22T07:46:55.737Z,7.37
2018-11-22T07:47:38.954Z,7.45
2018-11-22T07:48:19.328Z,7.45
2018-11-22T07:48:59.798Z,7.3
2018-11-22T07:51:12.422Z,7.16
2018-11-22T07:51:52.619Z,7.18
2018-11-22T07:52:33.071Z,7.24
2018-11-22T07:53:13.422Z,7.34
2018-11-22T07:53:53.810Z,7.26
2018-11-22T07:54:34.233Z,7.23
2018-11-22T07:55:14.606Z,7.29
2018-11-22T07:55:55.175Z,7.21
2018-11-22T07:56:35.561Z,7.41
2018-11-22T07:57:16.089Z,7.41
2018-11-22T07:57:57.293Z,7.37
2018-11-22T07:58:37.776Z,7.36
2018-11-22T07:59:18.256Z,7.32
2018-11-22T07:59:58.947Z,7.3
2018-11-22T08:00:39.419Z,7.41
2018-11-22T08:01:19.785Z,7.33
2018-11-22T08:02:00.564Z,7.3
2018-11-22T08:02:40.846Z,7.3
2018-11-22T08:03:21.184Z,7.34
2018-11-22T08:04:01.566Z,7.33
2018-11-22T08:04:41.950Z,7.32
2018-11-22T08:06:39.263Z,7.32
2018-11-22T08:07:32.594Z,7.34
2018-11-22T08:08:26.397Z,7.23
2018-11-22T08:09:23.205Z,7.26
2018-11-22T08:10:15.677Z,7.14
2018-11-22T08:11:10.087Z,7.24
2018-11-22T08:12:05.720Z,7.21
2018-11-22T08:12:57.893Z,7.27
2018-11-22T08:13:50.453Z,7.33
2018-11-22T08:14:45.387Z,7.37
2018-11-22T08:15:40.052Z,7.48
2018-11-22T08:16:40.569Z,7.42
2018-11-22T08:17:37.606Z,7.47
2018-11-22T08:18:30.514Z,7.42
2018-11-22T08:19:35.198Z,7.42
2018-11-22T08:22:11.410Z,7.45
2018-11-22T08:23:14.183Z,7.54
2018-11-22T08:24:07.060Z,7.48
2018-11-22T08:26:16.247Z,7.57
2018-11-22T08:26:56.868Z,7.57
2018-11-22T08:27:37.311Z,7.45
2018-11-22T08:28:17.793Z,7.62
2018-11-22T08:28:58.211Z,7.67
2018-11-22T08:29:38.592Z,7.82
2018-11-22T08:30:19.054Z,7.71
2018-11-22T08:31:00.221Z,7.79
2018-11-22T08:31:40.478Z,7.81
2018-11-22T08:32:20.853Z,7.82
2018-11-22T08:33:01.635Z,7.71
2018-11-22T08:33:42.023Z,7.67
2018-11-22T08:34:22.463Z,7.67
2018-11-22T08:35:02.935Z,7.77
2018-11-22T08:35:43.238Z,7.79
2018-11-22T08:36:23.612Z,7.82
2018-11-22T08:37:03.972Z,7.94
2018-11-22T08:37:44.503Z,7.81
2018-11-22T08:38:24.908Z,7.86
2018-11-22T08:39:05.328Z,7.86
2018-11-22T08:39:45.770Z,7.66
2018-11-22T08:40:26.130Z,7.63
2018-11-22T08:41:06.580Z,7.67
2018-11-22T08:43:22.769Z,7.63
2018-11-22T08:44:02.465Z,7.63
2018-11-22T08:44:42.783Z,7.66
2018-11-22T08:45:23.126Z,7.73
2018-11-22T08:46:03.565Z,7.77
2018-11-22T08:46:44.142Z,7.82
2018-11-22T08:47:24.421Z,8
2018-11-22T08:48:04.880Z,7.95
2018-11-22T08:48:45.484Z,7.92
2018-11-22T08:49:25.772Z,8.04
2018-11-22T08:50:06.233Z,7.94
2018-11-22T08:50:46.711Z,7.94
2018-11-22T08:51:27.064Z,7.96
2018-11-22T08:52:09.117Z,7.82
2018-11-22T08:52:48.869Z,7.88
2018-11-22T08:53:29.333Z,7.77
2018-11-22T08:54:11.471Z,7.85
2018-11-22T08:54:52.349Z,7.74
2018-11-22T08:55:33.338Z,7.81
2018-11-22T08:56:14.321Z,7.88
2018-11-22T08:56:54.974Z,8.07
2018-11-22T08:57:35.819Z,8.18
2018-11-22T08:58:16.228Z,8.21
2018-11-22T08:58:56.947Z,8.09
2018-11-22T08:59:37.841Z,8.06
2018-11-22T09:00:18.736Z,7.94
2018-11-22T09:00:59.558Z,7.85
2018-11-22T09:01:40.519Z,7.74
2018-11-22T09:02:22.018Z,7.44
2018-11-22T09:03:02.430Z,7.41
2018-11-22T09:03:42.447Z,7.3
2018-11-22T09:04:22.883Z,7.27
2018-11-22T09:05:03.343Z,7.36
2018-11-22T09:05:43.891Z,7.48
2018-11-22T09:06:24.228Z,7.47
2018-11-22T09:07:04.666Z,7.44
2018-11-22T09:07:45.233Z,7.34
2018-11-22T09:08:25.547Z,7.41
2018-11-22T09:09:05.969Z,7.36
2018-11-22T09:09:46.437Z,7.37
2018-11-22T09:10:26.963Z,7.27
2018-11-22T09:11:07.363Z,7.23
2018-11-22T09:11:48.741Z,7.32
2018-11-22T09:12:29.148Z,7.33
2018-11-22T09:13:09.523Z,7.34
2018-11-22T09:13:49.898Z,7.5
2018-11-22T09:14:30.393Z,7.6
2018-11-22T09:15:10.883Z,7.55
2018-11-22T09:15:52.100Z,7.58
2018-11-22T09:16:33.267Z,7.6
2018-11-22T09:17:13.657Z,7.69
2018-11-22T09:17:54.102Z,7.76
2018-11-22T09:18:34.470Z,7.81
2018-11-22T09:19:14.925Z,7.66
2018-11-22T09:19:55.549Z,7.67
2018-11-22T09:20:36.021Z,7.73
2018-11-22T09:21:17.062Z,7.77
2018-11-22T09:21:58.366Z,7.82
2018-11-22T09:22:38.553Z,7.85
2018-11-22T09:23:19.138Z,7.74
2018-11-22T09:23:59.650Z,7.84
2018-11-22T09:24:40.585Z,7.85
2018-11-22T09:25:21.478Z,7.85
2018-11-22T09:26:02.588Z,7.92
2018-11-22T09:26:45.219Z,8.03
2018-11-22T09:27:25.850Z,8.04
2018-11-22T09:28:06.231Z,8.09
2018-11-22T09:28:46.681Z,8.1
2018-11-22T09:29:27.056Z,8.1
2018-11-22T09:30:07.563Z,8.09
2018-11-22T09:30:47.857Z,7.99
2018-11-22T09:31:28.349Z,8.02
2018-11-22T09:32:08.840Z,8.13
2018-11-22T09:32:49.243Z,8.07
2018-11-22T09:33:29.665Z,8.29
2018-11-22T09:34:10.093Z,8.34
2018-11-22T09:34:50.502Z,8.4
2018-11-22T09:35:30.900Z,8.6
2018-11-22T09:36:11.413Z,8.65
2018-11-22T09:36:51.767Z,8.76
2018-11-22T09:37:32.230Z,8.78
2018-11-22T09:38:12.693Z,8.75
2018-11-22T09:38:53.046Z,8.76
2018-11-22T09:39:34.009Z,8.76
2018-11-22T09:40:15.056Z,8.76
2018-11-22T09:40:55.689Z,8.93
2018-11-22T09:41:36.433Z,8.96
2018-11-22T09:42:17.092Z,8.97
2018-11-22T09:42:57.576Z,8.93
2018-11-22T09:43:39.028Z,8.78
2018-11-22T09:44:20.419Z,8.76
2018-11-22T09:45:00.231Z,8.76
2018-11-22T09:45:40.713Z,8.79
2018-11-22T09:46:21.306Z,8.78
2018-11-22T09:47:01.843Z,8.75
2018-11-22T09:47:42.713Z,8.73
2018-11-22T09:48:23.133Z,8.7
2018-11-22T09:49:04.511Z,8.75
2018-11-22T09:49:45.119Z,8.73
2018-11-22T09:50:25.530Z,8.76
2018-11-22T09:52:03.760Z,8.76
2018-11-22T09:52:44.281Z,8.76
2018-11-22T09:53:24.706Z,8.67
2018-11-22T09:54:05.186Z,8.55
2018-11-22T09:54:45.455Z,8.65
2018-11-22T09:55:25.945Z,8.71
2018-11-22T09:56:06.462Z,8.7
2018-11-22T09:56:46.762Z,8.76
2018-11-22T09:57:27.143Z,8.54
2018-11-22T09:58:07.579Z,8.54
2018-11-22T09:58:48.065Z,8.37
2018-11-22T09:59:28.468Z,8.36
2018-11-22T10:00:08.815Z,8.4
2018-11-22T10:00:49.191Z,8.32
2018-11-22T10:01:29.716Z,8.14
2018-11-22T10:02:10.209Z,8.02
2018-11-22T10:02:50.745Z,7.95
2018-11-22T10:03:31.115Z,7.92
2018-11-22T10:04:11.646Z,7.91
2018-11-22T10:04:52.294Z,7.96
2018-11-22T10:05:32.584Z,7.79
2018-11-22T10:06:13.031Z,7.73
2018-11-22T10:08:06.789Z,7.34
2018-11-22T10:08:47.297Z,7.34
2018-11-22T10:09:27.986Z,7.23
2018-11-22T10:10:08.711Z,7.21
2018-11-22T10:10:49.117Z,7.04
2018-11-22T10:11:29.606Z,6.97
2018-11-22T10:12:10.068Z,6.86
2018-11-22T10:12:50.465Z,6.86
2018-11-22T10:13:30.908Z,6.81
2018-11-22T10:14:11.296Z,6.78
2018-11-22T10:14:51.872Z,6.82
2018-11-22T10:15:32.228Z,6.93
2018-11-22T10:16:12.555Z,7.07
2018-11-22T10:19:49.295Z,7.14
2018-11-22T10:20:29.349Z,7.14
2018-11-22T10:21:09.677Z,7.18